createdAt,value
2023-05-16T00:00:31.480Z,39.69
2023-05-16T00:01:31.509Z,39.94
2023-05-16T00:02:31.592Z,40.45
2023-05-16T00:03:31.585Z,39.86
2023-05-16T00:04:31.538Z,39.42
2023-05-16T00:05:31.521Z,41.12
2023-05-16T00:06:31.504Z,42.12
2023-05-16T00:07:31.520Z,42.74
2023-05-16T00:08:31.519Z,40.21
2023-05-16T00:09:31.517Z,40.93
2023-05-16T00:10:31.527Z,40.50
2023-05-16T00:11:31.573Z,39.98
2023-05-16T00:12:31.589Z,41.00
2023-05-16T00:13:31.580Z,40.40
2023-05-16T00:14:31.597Z,40.71
2023-05-16T00:15:31.613Z,39.47
2023-05-16T00:16:31.635Z,40.11
2023-05-16T00:17:31.639Z,39.59
2023-05-16T00:18:31.669Z,40.81
2023-05-16T00:19:31.626Z,41.44
2023-05-16T00:20:31.633Z,41.44
2023-05-16T00:21:31.644Z,39.89
2023-05-16T00:22:31.630Z,39.65
2023-05-16T00:23:31.641Z,40.81
2023-05-16T00:24:31.639Z,40.18
2023-05-16T00:25:31.671Z,39.73
2023-05-16T00:26:31.654Z,39.33
2023-05-16T00:27:31.664Z,39.93
2023-05-16T00:28:31.685Z,38.54
2023-05-16T00:29:31.682Z,39.04
2023-05-16T00:30:31.688Z,39.07
2023-05-16T00:31:31.735Z,38.72
2023-05-16T00:32:31.714Z,38.40
2023-05-16T00:33:31.730Z,38.84
2023-05-16T00:34:31.810Z,39.65
2023-05-16T00:35:31.744Z,38.34
2023-05-16T00:36:31.757Z,40.36
2023-05-16T00:37:31.748Z,41.49
2023-05-16T00:38:31.764Z,40.66
2023-05-16T00:39:31.796Z,40.86
2023-05-16T00:40:31.814Z,42.69
2023-05-16T00:41:31.802Z,41.44
2023-05-16T00:42:31.790Z,43.51
2023-05-16T00:43:31.808Z,43.22
2023-05-16T00:44:31.828Z,44.24
2023-05-16T00:45:31.845Z,44.46
2023-05-16T00:46:31.925Z,44.57
2023-05-16T00:47:31.895Z,43.89
2023-05-16T00:48:31.867Z,42.98
2023-05-16T00:49:31.880Z,43.20
2023-05-16T00:50:31.891Z,42.13
2023-05-16T00:51:31.925Z,41.65
2023-05-16T00:52:31.905Z,42.08
2023-05-16T00:53:31.933Z,43.38
2023-05-16T00:54:31.941Z,41.86
2023-05-16T00:55:31.942Z,41.89
2023-05-16T00:56:31.975Z,42.45
2023-05-16T00:57:31.976Z,41.90
2023-05-16T00:58:31.975Z,42.62
2023-05-16T00:59:31.984Z,41.61
2023-05-16T01:00:31.999Z,40.96
2023-05-16T01:01:32.000Z,40.67
2023-05-16T01:02:32.116Z,41.00
2023-05-16T01:03:32.178Z,40.83
2023-05-16T01:04:31.999Z,40.22
2023-05-16T01:05:32.027Z,38.91
2023-05-16T01:06:32.010Z,38.34
2023-05-16T01:07:32.023Z,37.87
2023-05-16T01:08:32.044Z,37.19
2023-05-16T01:09:32.068Z,37.62
2023-05-16T01:10:32.074Z,37.92
2023-05-16T01:11:32.068Z,38.34
2023-05-16T01:12:32.073Z,38.66
2023-05-16T01:13:32.076Z,38.96
2023-05-16T01:14:32.102Z,38.43
2023-05-16T01:15:32.133Z,36.08
2023-05-16T01:16:32.221Z,35.86
2023-05-16T01:17:32.144Z,34.08
2023-05-16T01:18:32.162Z,33.52
2023-05-16T01:19:32.194Z,33.05
2023-05-16T01:20:32.167Z,32.71
2023-05-16T01:21:32.174Z,32.98
2023-05-16T01:22:32.195Z,32.89
2023-05-16T01:23:32.206Z,33.46
2023-05-16T01:24:32.201Z,31.16
2023-05-16T01:25:32.204Z,31.52
2023-05-16T01:26:32.232Z,31.87
2023-05-16T01:27:32.237Z,30.18
2023-05-16T01:28:32.253Z,30.92
2023-05-16T01:29:32.243Z,30.28
2023-05-16T01:30:32.259Z,29.56
2023-05-16T01:31:32.365Z,29.67
2023-05-16T01:32:32.326Z,28.86
2023-05-16T01:33:32.317Z,29.62
2023-05-16T01:34:32.325Z,30.03
2023-05-16T01:35:32.315Z,31.86
2023-05-16T01:36:32.340Z,33.35
2023-05-16T01:37:32.345Z,33.86
2023-05-16T01:38:32.360Z,34.29
2023-05-16T01:39:32.357Z,34.50
2023-05-16T01:40:32.409Z,35.14
2023-05-16T01:41:32.392Z,34.73
2023-05-16T01:42:32.404Z,35.30
2023-05-16T01:43:32.426Z,35.68
2023-05-16T01:44:32.436Z,35.11
2023-05-16T01:45:32.475Z,35.36
2023-05-16T01:46:32.521Z,36.07
2023-05-16T01:47:32.508Z,35.59
2023-05-16T01:48:32.487Z,35.90
2023-05-16T01:49:32.512Z,35.63
2023-05-16T01:50:32.521Z,36.02
2023-05-16T01:51:32.521Z,36.58
2023-05-16T01:52:32.552Z,35.72
2023-05-16T01:53:32.538Z,35.47
2023-05-16T01:54:32.547Z,35.99
2023-05-16T01:55:32.575Z,36.34
2023-05-16T01:56:32.579Z,36.34
2023-05-16T01:57:32.597Z,36.38
2023-05-16T01:58:32.610Z,36.62
2023-05-16T01:59:32.610Z,35.88
2023-05-16T02:00:32.618Z,36.10
2023-05-16T02:01:32.763Z,36.47
2023-05-16T02:02:32.712Z,35.80
2023-05-16T02:03:32.716Z,35.52
2023-05-16T02:04:33.224Z,36.39
2023-05-16T02:05:32.714Z,36.65
2023-05-16T02:06:32.723Z,36.30
2023-05-16T02:07:32.732Z,36.07
2023-05-16T02:08:32.742Z,36.03
2023-05-16T02:09:32.766Z,36.85
2023-05-16T02:10:32.800Z,37.56
2023-05-16T02:11:32.812Z,37.86
2023-05-16T02:12:32.819Z,37.29
2023-05-16T02:13:32.828Z,36.86
2023-05-16T02:14:32.844Z,37.93
2023-05-16T02:15:32.857Z,37.14
2023-05-16T02:16:32.945Z,36.31
2023-05-16T02:17:32.940Z,36.51
2023-05-16T02:18:32.912Z,37.07
2023-05-16T02:19:32.925Z,35.13
2023-05-16T02:20:32.966Z,34.54
2023-05-16T02:21:32.980Z,33.64
2023-05-16T02:22:32.968Z,32.73
2023-05-16T02:23:33.037Z,32.04
2023-05-16T02:24:33.026Z,31.99
2023-05-16T02:25:33.024Z,32.08
2023-05-16T02:26:33.081Z,32.22
2023-05-16T02:27:33.078Z,32.58
2023-05-16T02:28:33.095Z,32.51
2023-05-16T02:29:33.097Z,32.94
2023-05-16T02:30:33.136Z,31.66
2023-05-16T02:31:33.160Z,32.47
2023-05-16T02:32:33.260Z,32.49
2023-05-16T02:33:33.187Z,32.01
2023-05-16T02:34:33.186Z,32.28
2023-05-16T02:35:33.229Z,33.78
2023-05-16T02:36:33.237Z,33.76
2023-05-16T02:37:33.241Z,34.26
2023-05-16T02:38:33.253Z,34.29
2023-05-16T02:39:33.290Z,34.76
2023-05-16T02:40:33.286Z,35.43
2023-05-16T02:41:33.303Z,35.92
2023-05-16T02:42:33.324Z,35.48
2023-05-16T02:43:33.352Z,34.99
2023-05-16T02:44:33.392Z,35.58
2023-05-16T02:45:33.369Z,34.11
2023-05-16T02:46:33.499Z,34.24
2023-05-16T02:47:33.427Z,33.17
2023-05-16T02:48:33.431Z,33.18
2023-05-16T02:49:33.442Z,32.91
2023-05-16T02:50:33.460Z,33.20
2023-05-16T02:51:33.474Z,33.30
2023-05-16T02:52:33.486Z,32.66
2023-05-16T02:53:33.516Z,32.60
2023-05-16T02:54:33.552Z,32.45
2023-05-16T02:55:33.527Z,32.71
2023-05-16T02:56:33.559Z,31.83
2023-05-16T02:57:33.587Z,30.33
2023-05-16T02:58:33.579Z,31.24
2023-05-16T02:59:33.602Z,31.26
2023-05-16T03:00:33.610Z,30.91
2023-05-16T03:01:33.678Z,30.42
2023-05-16T03:02:33.772Z,29.51
2023-05-16T03:03:33.801Z,28.66
2023-05-16T03:04:33.661Z,28.25
2023-05-16T03:05:33.683Z,26.49
2023-05-16T03:06:33.714Z,26.27
2023-05-16T03:07:33.711Z,27.15
2023-05-16T03:08:33.747Z,26.73
2023-05-16T03:09:33.751Z,26.36
2023-05-16T03:10:33.795Z,25.90
2023-05-16T03:11:34.223Z,26.74
2023-05-16T03:12:33.808Z,26.49
2023-05-16T03:13:33.830Z,26.55
2023-05-16T03:14:33.821Z,28.37
2023-05-16T03:15:33.866Z,28.66
2023-05-16T03:16:33.956Z,30.33
2023-05-16T03:17:33.928Z,30.71
2023-05-16T03:18:33.929Z,31.77
2023-05-16T03:19:33.899Z,31.60
2023-05-16T03:20:33.917Z,32.38
2023-05-16T03:21:33.933Z,32.04
2023-05-16T03:22:33.965Z,30.97
2023-05-16T03:23:34.003Z,30.89
2023-05-16T03:24:34.771Z,30.14
2023-05-16T03:25:34.036Z,29.74
2023-05-16T03:26:34.106Z,29.06
2023-05-16T03:27:34.141Z,29.15
2023-05-16T03:28:34.215Z,29.89
2023-05-16T03:29:34.276Z,30.36
2023-05-16T03:30:34.369Z,30.99
2023-05-16T03:31:34.446Z,30.81
2023-05-16T03:32:34.425Z,31.14
2023-05-16T03:33:34.463Z,31.27
2023-05-16T03:34:34.468Z,31.88
2023-05-16T03:35:34.486Z,31.25
2023-05-16T03:36:34.511Z,31.15
2023-05-16T03:37:34.521Z,32.09
2023-05-16T03:38:34.532Z,31.82
2023-05-16T03:39:34.535Z,32.49
2023-05-16T03:40:34.560Z,32.78
2023-05-16T03:41:34.591Z,32.32
2023-05-16T03:42:34.606Z,32.19
2023-05-16T03:43:34.615Z,32.83
2023-05-16T03:44:34.620Z,33.30
2023-05-16T03:45:34.668Z,33.52
2023-05-16T03:46:34.714Z,33.42
2023-05-16T03:47:34.735Z,33.29
2023-05-16T03:48:34.733Z,33.73
2023-05-16T03:49:34.714Z,32.74
2023-05-16T03:50:34.761Z,32.28
2023-05-16T03:51:34.752Z,32.62
2023-05-16T03:52:34.779Z,32.13
2023-05-16T03:53:34.781Z,31.31
2023-05-16T03:54:34.823Z,31.02
2023-05-16T03:55:34.824Z,30.67
2023-05-16T03:56:34.850Z,31.22
2023-05-16T03:57:34.875Z,31.85
2023-05-16T03:58:34.900Z,31.46
2023-05-16T03:59:34.926Z,32.16
2023-05-16T04:00:34.936Z,32.50
2023-05-16T04:01:35.015Z,31.46
2023-05-16T04:02:35.056Z,31.06
2023-05-16T04:03:35.048Z,30.77
2023-05-16T04:04:35.017Z,30.59
2023-05-16T04:05:35.069Z,30.45
2023-05-16T04:06:35.074Z,30.68
2023-05-16T04:07:35.118Z,31.17
2023-05-16T04:08:35.112Z,30.11
2023-05-16T04:09:35.117Z,29.18
2023-05-16T04:10:35.153Z,27.70
2023-05-16T04:11:35.142Z,27.01
2023-05-16T04:12:35.173Z,26.05
2023-05-16T04:13:35.235Z,24.83
2023-05-16T04:14:35.247Z,24.96
2023-05-16T04:15:35.303Z,26.02
2023-05-16T04:16:35.330Z,26.80
2023-05-16T04:17:35.469Z,26.75
2023-05-16T04:18:35.485Z,28.52
2023-05-16T04:19:35.471Z,29.48
2023-05-16T04:20:35.529Z,29.42
2023-05-16T04:21:35.579Z,29.70
2023-05-16T04:22:35.663Z,30.30
2023-05-16T04:23:35.695Z,29.04
2023-05-16T04:24:35.752Z,29.13
2023-05-16T04:25:35.829Z,29.09
2023-05-16T04:26:35.823Z,29.74
2023-05-16T04:27:35.831Z,29.56
2023-05-16T04:28:35.858Z,29.51
2023-05-16T04:29:35.884Z,29.70
2023-05-16T04:30:35.912Z,29.11
2023-05-16T04:31:35.969Z,29.29
2023-05-16T04:32:35.979Z,29.72
2023-05-16T04:33:35.962Z,30.12
2023-05-16T04:34:37.969Z,31.11
2023-05-16T04:35:35.983Z,31.94
2023-05-16T04:36:35.978Z,31.36
2023-05-16T04:37:35.983Z,31.49
2023-05-16T04:38:35.983Z,32.44
2023-05-16T04:39:35.973Z,31.81
2023-05-16T04:40:35.991Z,31.97
2023-05-16T04:41:35.944Z,31.63
2023-05-16T04:42:35.936Z,31.36
2023-05-16T04:43:35.950Z,31.72
2023-05-16T04:44:35.939Z,30.88
2023-05-16T04:45:37.587Z,30.77
2023-05-16T04:46:35.973Z,30.87
2023-05-16T04:47:35.924Z,31.84
2023-05-16T04:48:35.927Z,30.96
2023-05-16T04:49:35.904Z,30.30
2023-05-16T04:50:35.942Z,29.99
2023-05-16T04:51:35.883Z,30.61
2023-05-16T04:52:35.879Z,29.96
2023-05-16T04:53:35.866Z,30.26
2023-05-16T04:54:35.881Z,29.91
2023-05-16T04:55:35.861Z,29.46
2023-05-16T04:56:35.851Z,28.80
2023-05-16T04:57:35.860Z,28.74
2023-05-16T04:58:35.839Z,28.87
2023-05-16T04:59:35.822Z,28.64
2023-05-16T05:00:35.817Z,28.30
2023-05-16T05:01:35.880Z,27.90
2023-05-16T05:02:35.886Z,27.45
2023-05-16T05:03:35.876Z,27.44
2023-05-16T05:04:35.980Z,26.91
2023-05-16T05:05:35.975Z,27.23
2023-05-16T05:06:35.949Z,27.39
2023-05-16T05:07:35.977Z,27.83
2023-05-16T05:08:35.986Z,27.68
2023-05-16T05:09:35.994Z,28.30
2023-05-16T05:10:36.043Z,28.03
2023-05-16T05:11:36.036Z,28.90
2023-05-16T05:12:36.088Z,28.98
2023-05-16T05:13:36.093Z,29.43
2023-05-16T05:14:36.125Z,28.57
2023-05-16T05:15:36.134Z,29.22
2023-05-16T05:16:36.168Z,29.93
2023-05-16T05:17:36.255Z,29.87
2023-05-16T05:18:36.264Z,30.17
2023-05-16T05:19:36.237Z,29.49
2023-05-16T05:20:36.218Z,29.25
2023-05-16T05:21:36.278Z,29.46
2023-05-16T05:22:36.314Z,29.74
2023-05-16T05:23:36.356Z,28.49
2023-05-16T05:24:36.427Z,28.56
2023-05-16T05:25:37.829Z,28.39
2023-05-16T05:26:36.450Z,27.43
2023-05-16T05:27:36.507Z,27.04
2023-05-16T05:28:36.546Z,28.25
2023-05-16T05:29:36.621Z,31.01
2023-05-16T05:30:36.607Z,30.84
2023-05-16T05:31:36.640Z,33.09
2023-05-16T05:32:36.616Z,37.24
2023-05-16T05:33:36.627Z,39.81
2023-05-16T05:34:36.644Z,45.25
2023-05-16T05:35:36.621Z,51.25
2023-05-16T05:36:36.776Z,52.04
2023-05-16T05:37:36.636Z,55.40
2023-05-16T05:38:36.649Z,61.80
2023-05-16T05:39:36.679Z,66.26
2023-05-16T05:40:36.795Z,72.36
2023-05-16T05:41:36.782Z,75.69
2023-05-16T05:42:36.819Z,83.96
2023-05-16T05:43:36.879Z,84.40
2023-05-16T05:44:36.904Z,88.51
2023-05-16T05:45:37.335Z,100.13
2023-05-16T05:46:36.961Z,99.83
2023-05-16T05:47:36.950Z,101.53
2023-05-16T05:48:36.927Z,102.65
2023-05-16T05:49:36.917Z,101.19
2023-05-16T05:50:36.956Z,105.70
2023-05-16T05:51:36.997Z,105.27
2023-05-16T05:52:37.054Z,110.12
2023-05-16T05:53:37.126Z,108.69
2023-05-16T05:54:37.222Z,110.80
2023-05-16T05:55:37.234Z,120.08
2023-05-16T05:56:37.289Z,119.43
2023-05-16T05:57:37.288Z,117.53
2023-05-16T05:58:37.333Z,119.32
2023-05-16T05:59:37.383Z,127.01
2023-05-16T06:00:37.485Z,123.94
2023-05-16T06:01:37.500Z,127.65
2023-05-16T06:02:37.762Z,127.09
2023-05-16T06:03:37.639Z,129.16
2023-05-16T06:04:37.588Z,125.59
2023-05-16T06:05:37.651Z,130.13
2023-05-16T06:06:37.688Z,129.69
2023-05-16T06:07:37.665Z,118.95
2023-05-16T06:08:37.710Z,121.65
2023-05-16T06:09:37.725Z,132.88
2023-05-16T06:10:37.933Z,128.00
2023-05-16T06:11:37.753Z,123.71
2023-05-16T06:12:37.780Z,128.80
2023-05-16T06:13:37.844Z,129.56
2023-05-16T06:14:37.818Z,130.53
2023-05-16T06:15:37.820Z,132.89
2023-05-16T06:16:37.881Z,134.98
2023-05-16T06:17:37.887Z,126.20
2023-05-16T06:18:38.020Z,132.37
2023-05-16T06:19:37.855Z,130.36
2023-05-16T06:20:37.901Z,136.74
2023-05-16T06:21:37.909Z,127.95
2023-05-16T06:22:37.915Z,130.39
2023-05-16T06:23:37.916Z,135.43
2023-05-16T06:24:37.924Z,141.02
2023-05-16T06:25:37.938Z,138.17
2023-05-16T06:26:37.943Z,139.08
2023-05-16T06:27:37.980Z,139.37
2023-05-16T06:28:37.977Z,136.68
2023-05-16T06:29:37.977Z,135.34
2023-05-16T06:30:38.297Z,134.96
2023-05-16T06:31:38.052Z,134.31
2023-05-16T06:32:38.044Z,132.25
2023-05-16T06:33:38.013Z,128.14
2023-05-16T06:34:38.033Z,101.92
2023-05-16T06:35:38.314Z,73.90
2023-05-16T06:36:38.336Z,63.29
2023-05-16T06:37:38.358Z,56.27
2023-05-16T06:38:38.114Z,47.87
2023-05-16T06:39:38.159Z,44.43
2023-05-16T06:40:38.326Z,42.11
2023-05-16T06:41:38.216Z,43.56
2023-05-16T06:42:38.776Z,42.40
2023-05-16T06:43:38.261Z,42.75
2023-05-16T06:44:38.309Z,44.20
2023-05-16T06:45:38.352Z,45.59
2023-05-16T06:46:38.450Z,50.46
2023-05-16T06:47:38.391Z,53.00
2023-05-16T06:48:38.416Z,53.31
2023-05-16T06:49:38.456Z,51.13
2023-05-16T06:50:38.859Z,51.14
2023-05-16T06:51:38.553Z,49.80
2023-05-16T06:52:38.588Z,48.02
2023-05-16T06:53:38.611Z,48.44
2023-05-16T06:54:38.662Z,49.00
2023-05-16T06:55:38.825Z,49.97
2023-05-16T06:56:38.744Z,45.17
2023-05-16T06:57:38.748Z,42.72
2023-05-16T06:58:38.766Z,38.54
2023-05-16T06:59:38.770Z,37.55
2023-05-16T07:00:38.878Z,37.47
2023-05-16T07:01:38.777Z,41.59
2023-05-16T07:02:38.874Z,45.61
2023-05-16T07:03:38.867Z,52.00
2023-05-16T07:04:38.809Z,59.38
2023-05-16T07:05:38.893Z,65.35
2023-05-16T07:06:38.928Z,73.81
2023-05-16T07:07:38.994Z,82.67
2023-05-16T07:08:39.049Z,89.40
2023-05-16T07:09:39.103Z,93.39
2023-05-16T07:10:39.328Z,97.11
2023-05-16T07:11:39.145Z,97.17
2023-05-16T07:12:39.376Z,99.04
2023-05-16T07:13:39.205Z,101.12
2023-05-16T07:14:39.252Z,102.49
2023-05-16T07:15:39.260Z,105.04
2023-05-16T07:16:39.316Z,106.18
2023-05-16T07:17:39.284Z,106.67
2023-05-16T07:18:39.359Z,106.94
2023-05-16T07:19:39.312Z,103.68
2023-05-16T07:20:39.333Z,106.32
2023-05-16T07:21:39.323Z,107.77
2023-05-16T07:22:39.326Z,105.66
2023-05-16T07:23:39.346Z,107.41
2023-05-16T07:24:39.384Z,106.89
2023-05-16T07:25:39.856Z,105.13
2023-05-16T07:26:39.395Z,101.88
2023-05-16T07:27:39.417Z,93.03
2023-05-16T07:28:39.426Z,89.16
2023-05-16T07:29:39.434Z,90.82
2023-05-16T07:30:39.878Z,93.80
2023-05-16T07:31:39.530Z,94.56
2023-05-16T07:32:39.531Z,93.32
2023-05-16T07:33:39.516Z,96.86
2023-05-16T07:34:39.514Z,102.38
2023-05-16T07:35:39.524Z,103.15
2023-05-16T07:36:39.543Z,102.12
2023-05-16T07:37:39.543Z,98.00
2023-05-16T07:38:39.564Z,95.97
2023-05-16T07:39:39.573Z,101.75
2023-05-16T07:40:39.854Z,101.02
2023-05-16T07:41:39.852Z,102.06
2023-05-16T07:42:39.627Z,104.40
2023-05-16T07:43:39.632Z,100.51
2023-05-16T07:44:39.627Z,105.57
2023-05-16T07:45:39.740Z,105.84
2023-05-16T07:46:40.022Z,102.51
2023-05-16T07:47:39.653Z,106.92
2023-05-16T07:48:39.649Z,112.34
2023-05-16T07:49:39.663Z,108.43
2023-05-16T07:50:39.655Z,107.66
2023-05-16T07:51:39.680Z,106.96
2023-05-16T07:52:39.670Z,105.55
2023-05-16T07:53:39.673Z,107.76
2023-05-16T07:54:39.669Z,103.77
2023-05-16T07:55:39.840Z,100.84
2023-05-16T07:56:39.658Z,103.15
2023-05-16T07:57:39.661Z,105.95
2023-05-16T07:58:39.667Z,104.34
2023-05-16T07:59:39.753Z,105.18
2023-05-16T08:00:39.757Z,103.86
2023-05-16T08:01:39.760Z,103.24
2023-05-16T08:02:39.889Z,97.12
2023-05-16T08:03:39.810Z,101.37
2023-05-16T08:04:39.746Z,101.47
2023-05-16T08:05:39.807Z,103.75
2023-05-16T08:06:39.738Z,106.79
2023-05-16T08:07:39.724Z,102.79
2023-05-16T08:08:39.757Z,105.64
2023-05-16T08:09:39.739Z,103.04
2023-05-16T08:10:39.747Z,103.29
2023-05-16T08:11:39.731Z,101.72
2023-05-16T08:12:39.720Z,103.39
2023-05-16T08:13:39.743Z,102.47
2023-05-16T08:14:39.775Z,98.16
2023-05-16T08:15:39.941Z,98.37
2023-05-16T08:16:39.974Z,95.23
2023-05-16T08:17:39.899Z,93.55
2023-05-16T08:18:39.945Z,90.97
2023-05-16T08:19:39.886Z,88.63
2023-05-16T08:20:39.917Z,86.45
2023-05-16T08:21:39.894Z,79.36
2023-05-16T08:22:39.906Z,76.84
2023-05-16T08:23:39.888Z,79.71
2023-05-16T08:24:39.906Z,77.81
2023-05-16T08:25:39.933Z,72.73
2023-05-16T08:26:39.917Z,75.25
2023-05-16T08:27:39.954Z,77.98
2023-05-16T08:28:40.054Z,78.08
2023-05-16T08:29:40.056Z,86.63
2023-05-16T08:30:42.648Z,82.68
2023-05-16T08:31:40.383Z,78.73
2023-05-16T08:32:40.122Z,77.00
2023-05-16T08:33:40.137Z,74.41
2023-05-16T08:34:40.108Z,73.62
2023-05-16T08:35:40.097Z,71.90
2023-05-16T08:36:40.361Z,70.57
2023-05-16T08:37:40.077Z,68.99
2023-05-16T08:38:40.055Z,64.17
2023-05-16T08:39:40.063Z,65.34
2023-05-16T08:40:40.096Z,42.79
2023-05-16T08:41:40.352Z,29.45
2023-05-16T08:42:40.022Z,27.17
2023-05-16T08:43:40.023Z,23.65
2023-05-16T08:44:40.017Z,20.87
2023-05-16T08:45:39.995Z,21.91
2023-05-16T08:46:40.068Z,20.30
2023-05-16T08:47:40.077Z,17.29
2023-05-16T08:48:40.003Z,15.82
2023-05-16T08:49:40.025Z,19.00
2023-05-16T08:50:39.980Z,19.93
2023-05-16T08:51:39.975Z,21.04
2023-05-16T08:52:39.979Z,21.63
2023-05-16T08:53:39.983Z,28.80
2023-05-16T08:54:39.962Z,31.00
2023-05-16T08:55:39.964Z,38.42
2023-05-16T08:56:39.951Z,39.71
2023-05-16T08:57:39.941Z,32.87
2023-05-16T08:58:39.926Z,42.43
2023-05-16T08:59:39.933Z,39.15
2023-05-16T09:00:39.983Z,34.09
2023-05-16T09:01:40.376Z,34.00
2023-05-16T09:02:39.944Z,28.46
2023-05-16T09:03:39.959Z,27.20
2023-05-16T09:04:39.893Z,25.84
2023-05-16T09:05:39.932Z,24.11
2023-05-16T09:06:40.485Z,25.23
2023-05-16T09:07:39.883Z,22.35
2023-05-16T09:08:39.878Z,21.79
2023-05-16T09:09:39.890Z,22.70
2023-05-16T09:10:39.873Z,21.79
2023-05-16T09:11:39.890Z,21.38
2023-05-16T09:12:39.849Z,19.24
2023-05-16T09:13:39.842Z,17.98
2023-05-16T09:14:39.829Z,18.18
2023-05-16T09:15:39.828Z,17.74
2023-05-16T09:16:39.884Z,17.05
2023-05-16T09:17:41.587Z,16.40
2023-05-16T09:18:39.864Z,17.95
2023-05-16T09:19:39.865Z,16.71
2023-05-16T09:20:39.805Z,17.27
2023-05-16T09:21:39.902Z,17.79
2023-05-16T09:22:39.870Z,16.65
2023-05-16T09:23:39.761Z,15.53
2023-05-16T09:24:39.759Z,14.65
2023-05-16T09:25:39.748Z,15.98
2023-05-16T09:26:39.878Z,21.18
2023-05-16T09:27:39.736Z,26.66
2023-05-16T09:28:39.746Z,27.43
2023-05-16T09:29:39.713Z,29.81
2023-05-16T09:30:39.726Z,31.45
2023-05-16T09:31:39.964Z,28.73
2023-05-16T09:32:39.748Z,34.30
2023-05-16T09:33:39.689Z,31.79
2023-05-16T09:34:39.727Z,23.86
2023-05-16T09:35:45.428Z,18.65
2023-05-16T09:36:43.511Z,15.70
2023-05-16T09:37:39.672Z,15.40
2023-05-16T09:38:39.692Z,18.82
2023-05-16T09:39:39.652Z,16.28
2023-05-16T09:40:39.653Z,13.60
2023-05-16T09:41:39.682Z,14.87
2023-05-16T09:42:39.650Z,19.82
2023-05-16T09:43:41.608Z,16.47
2023-05-16T09:44:39.620Z,15.77
2023-05-16T09:45:39.605Z,16.97
2023-05-16T09:46:39.652Z,17.57
2023-05-16T09:47:39.681Z,20.18
2023-05-16T09:48:39.581Z,18.74
2023-05-16T09:49:39.584Z,13.89
2023-05-16T09:50:39.598Z,13.17
2023-05-16T09:51:39.882Z,13.15
2023-05-16T09:52:39.583Z,9.94
2023-05-16T09:53:39.581Z,8.33
2023-05-16T09:54:39.574Z,8.45
2023-05-16T09:55:39.555Z,8.80
2023-05-16T09:56:39.560Z,9.54
2023-05-16T09:57:39.553Z,9.70
2023-05-16T09:58:39.537Z,9.05
2023-05-16T09:59:39.523Z,7.12
2023-05-16T10:00:39.506Z,5.65
2023-05-16T10:01:39.543Z,5.91
2023-05-16T10:02:39.525Z,7.46
2023-05-16T10:03:39.610Z,9.09
2023-05-16T10:04:39.483Z,11.32
2023-05-16T10:05:39.488Z,14.86
2023-05-16T10:06:39.501Z,14.99
2023-05-16T10:07:39.478Z,16.09
2023-05-16T10:08:39.464Z,15.18
2023-05-16T10:09:39.472Z,16.51
2023-05-16T10:10:39.604Z,18.73
2023-05-16T10:11:39.433Z,20.80
2023-05-16T10:12:39.443Z,23.69
2023-05-16T10:13:39.430Z,24.37
2023-05-16T10:14:39.418Z,24.88
2023-05-16T10:15:39.415Z,24.95
2023-05-16T10:16:39.485Z,26.43
2023-05-16T10:17:39.472Z,27.82
2023-05-16T10:18:39.429Z,32.50
2023-05-16T10:19:39.418Z,35.27
2023-05-16T10:20:39.378Z,34.20
2023-05-16T10:21:39.373Z,25.81
2023-05-16T10:22:39.383Z,22.93
2023-05-16T10:23:39.403Z,19.83
2023-05-16T10:24:39.910Z,14.59
2023-05-16T10:25:39.449Z,10.21
2023-05-16T10:26:39.432Z,9.61
2023-05-16T10:27:39.484Z,9.66
2023-05-16T10:28:39.518Z,10.05
2023-05-16T10:29:52.938Z,11.15
2023-05-16T10:30:40.534Z,11.15
2023-05-16T10:31:39.531Z,9.18
2023-05-16T10:32:42.507Z,8.76
2023-05-16T10:33:39.514Z,8.29
2023-05-16T10:34:39.507Z,8.13
2023-05-16T10:35:39.496Z,7.14
2023-05-16T10:36:39.499Z,5.18
2023-05-16T10:37:39.575Z,4.06
2023-05-16T10:38:39.485Z,3.08
2023-05-16T10:39:39.464Z,3.09
2023-05-16T10:40:39.449Z,3.14
2023-05-16T10:41:39.460Z,2.87
2023-05-16T10:42:39.455Z,2.80
2023-05-16T10:43:39.710Z,2.52
2023-05-16T10:44:39.876Z,2.55
2023-05-16T10:45:39.465Z,2.38
2023-05-16T10:46:39.665Z,2.45
2023-05-16T10:47:39.461Z,2.37
2023-05-16T10:48:39.457Z,2.28
2023-05-16T10:49:39.410Z,2.46
2023-05-16T10:50:39.412Z,2.37
2023-05-16T10:51:39.376Z,2.31
2023-05-16T10:52:39.380Z,2.15
2023-05-16T10:53:39.380Z,1.93
2023-05-16T10:54:39.373Z,2.00
2023-05-16T10:55:39.357Z,2.46
2023-05-16T10:56:39.449Z,2.28
2023-05-16T10:57:39.347Z,2.41
2023-05-16T10:58:39.348Z,2.30
2023-05-16T10:59:39.325Z,2.59
2023-05-16T11:00:39.342Z,2.58
2023-05-16T11:01:39.475Z,3.18
2023-05-16T11:02:39.409Z,3.08
2023-05-16T11:03:39.541Z,2.96
2023-05-16T11:04:39.300Z,3.35
2023-05-16T11:05:39.285Z,3.97
2023-05-16T11:06:39.399Z,3.96
2023-05-16T11:07:39.259Z,3.79
2023-05-16T11:08:39.249Z,4.34
2023-05-16T11:09:39.260Z,4.05
2023-05-16T11:10:39.259Z,4.12
2023-05-16T11:11:39.415Z,3.80
2023-05-16T11:12:39.239Z,3.74
2023-05-16T11:13:39.228Z,3.40
2023-05-16T11:14:39.277Z,3.12
2023-05-16T11:15:39.230Z,3.95
2023-05-16T11:16:39.449Z,5.66
2023-05-16T11:17:41.030Z,6.19
2023-05-16T11:18:39.220Z,4.96
2023-05-16T11:19:39.200Z,5.84
2023-05-16T11:20:39.185Z,6.13
2023-05-16T11:21:39.397Z,5.95
2023-05-16T11:22:39.177Z,6.05
2023-05-16T11:23:39.145Z,6.21
2023-05-16T11:24:39.169Z,6.84
2023-05-16T11:25:39.152Z,6.68
2023-05-16T11:26:39.406Z,5.98
2023-05-16T11:27:39.141Z,4.48
2023-05-16T11:28:39.124Z,4.87
2023-05-16T11:29:39.126Z,4.51
2023-05-16T11:30:39.126Z,4.46
2023-05-16T11:31:39.159Z,5.07
2023-05-16T11:32:39.149Z,5.52
2023-05-16T11:33:39.075Z,5.24
2023-05-16T11:34:39.072Z,4.24
2023-05-16T11:35:39.087Z,3.90
2023-05-16T11:36:39.061Z,3.68
2023-05-16T11:37:39.066Z,5.66
2023-05-16T11:38:39.056Z,6.68
2023-05-16T11:39:39.101Z,7.16
2023-05-16T11:40:39.041Z,5.38
2023-05-16T11:41:39.042Z,6.46
2023-05-16T11:42:39.025Z,6.93
2023-05-16T11:43:39.025Z,6.28
2023-05-16T11:44:39.003Z,7.18
2023-05-16T11:45:39.008Z,8.04
2023-05-16T11:46:39.130Z,7.80
2023-05-16T11:47:39.110Z,7.58
2023-05-16T11:48:39.085Z,8.32
2023-05-16T11:49:38.974Z,7.20
2023-05-16T11:50:38.986Z,6.68
2023-05-16T11:51:38.962Z,7.50
2023-05-16T11:52:38.982Z,6.79
2023-05-16T11:53:38.951Z,7.07
2023-05-16T11:54:38.953Z,7.53
2023-05-16T11:55:42.329Z,5.32
2023-05-16T11:56:38.940Z,4.53
2023-05-16T11:57:38.937Z,3.87
2023-05-16T11:58:38.927Z,3.63
2023-05-16T11:59:38.897Z,4.27
2023-05-16T12:00:38.887Z,4.55
2023-05-16T12:01:38.912Z,4.65
2023-05-16T12:02:38.944Z,4.62
2023-05-16T12:03:38.999Z,4.49
2023-05-16T12:04:39.120Z,4.20
2023-05-16T12:05:38.984Z,4.31
2023-05-16T12:06:38.896Z,4.23
2023-05-16T12:07:38.843Z,2.61
2023-05-16T12:08:38.837Z,2.11
2023-05-16T12:09:38.847Z,1.07
2023-05-16T12:10:38.829Z,0.95
2023-05-16T12:11:38.838Z,1.16
2023-05-16T12:12:38.841Z,1.33
2023-05-16T12:13:38.808Z,1.57
2023-05-16T12:14:38.812Z,1.77
2023-05-16T12:15:38.791Z,1.97
2023-05-16T12:16:38.882Z,2.06
2023-05-16T12:17:38.820Z,1.90
2023-05-16T12:18:41.228Z,2.01
2023-05-16T12:19:38.779Z,2.02
2023-05-16T12:20:38.760Z,2.08
2023-05-16T12:21:38.759Z,2.31
2023-05-16T12:22:38.759Z,2.66
2023-05-16T12:23:38.740Z,3.14
2023-05-16T12:24:38.748Z,3.29
2023-05-16T12:25:38.747Z,3.39
2023-05-16T12:26:38.720Z,3.63
2023-05-16T12:27:41.041Z,3.84
2023-05-16T12:28:38.733Z,4.27
2023-05-16T12:29:38.746Z,3.71
2023-05-16T12:30:38.748Z,3.29
2023-05-16T12:31:38.862Z,3.75
2023-05-16T12:32:38.976Z,4.27
2023-05-16T12:33:38.916Z,5.83
2023-05-16T12:34:38.879Z,6.35
2023-05-16T12:35:38.867Z,7.57
2023-05-16T12:36:38.896Z,8.51
2023-05-16T12:37:38.885Z,9.34
2023-05-16T12:38:38.900Z,10.78
2023-05-16T12:39:38.929Z,13.86
2023-05-16T12:40:38.953Z,17.45
2023-05-16T12:41:38.938Z,21.78
2023-05-16T12:42:38.954Z,23.17
2023-05-16T12:43:38.967Z,19.85
2023-05-16T12:44:38.993Z,11.95
2023-05-16T12:45:38.985Z,10.40
2023-05-16T12:46:39.036Z,10.22
2023-05-16T12:47:39.057Z,11.50
2023-05-16T12:48:39.057Z,11.24
2023-05-16T12:49:39.033Z,11.76
2023-05-16T12:50:39.338Z,12.27
2023-05-16T12:51:39.088Z,11.65
2023-05-16T12:52:39.058Z,10.82
2023-05-16T12:53:39.090Z,10.73
2023-05-16T12:54:39.110Z,10.34